Dades meteomassalio
Diari Summary for Gener 14, 2018 Units:  Metric    English   Both
« Previous Day
Next Day »
Diari Semanal Mensual Anual Personalitzat
  Maxima: Minima: Mijana:
Temperatura: -17.8 °C -16.8 °C -14.6 °C
Rosada: -17.8 °C -18.9 °C -16.3 °C
Humitat: Humidity % 71 % 80 %
Velocitat del vent: 0 km/h 0 km/h 21.7 km/h
Racha vent: 0 km/h - -
Vent:- - NW
Pressio: 0 hPa 34486.4 hPa -
Pluja: 7.62 mm    
Historical Graphs
 
 
Tabular Data for Gener 14, 2018
Time Temperature Dew Point Pressure Wind Wind Speed Wind Gust Humidity Rainfall Rate (Hourly) solar Conditions
-17.8 °C -17.8 °C 0 hPa Calm     Humidity % 0 mm SolarRadiationWatts/m^2 W/m2 Conditions
00:05 -15.3 °C -16.1 °C 34520.3 hPa West 9 km/h 9 km/h 91 % 7.62 mm 0.0 W/m2 RA
00:11 -15 °C -15.7 °C 34520.3 hPa Calm     91 % 7.62 mm 0.0 W/m2 CLR
00:24 -15.3 °C -16.1 °C 34520.3 hPa Calm     91 % 7.62 mm 0.0 W/m2 CLR
00:31 -15.3 °C -16.1 °C 34520.3 hPa West 5.1 km/h 5.1 km/h 91 % 7.62 mm 0.0 W/m2 CLR
01:10 -15.9 °C -16.7 °C 34496.6 hPa Calm     91 % 0 mm 0.0 W/m2 CLR
01:20 -16.2 °C -17 °C 34496.6 hPa Calm     91 % 0 mm 0.0 W/m2 CLR
01:28 -16.2 °C -16.9 °C 34496.6 hPa Calm     92 % 0 mm 0.0 W/m2 CLR
01:35 -16.2 °C -16.9 °C 34496.6 hPa Calm     92 % 0 mm 0.0 W/m2 CLR
01:53 -16.2 °C -16.9 °C 34496.6 hPa Calm     92 % 0 mm 0.0 W/m2 CLR
02:04 -16.2 °C -16.9 °C 34486.4 hPa Calm     92 % 0 mm 0.0 W/m2 CLR
02:22 -15.9 °C -16.6 °C 34486.4 hPa Calm     92 % 0 mm 0.0 W/m2 CLR
02:47 -15.9 °C -16.6 °C 34486.4 hPa Calm     92 % 7.62 mm 0.0 W/m2
03:03 -15.9 °C -16.5 °C 34496.6 hPa NNW 12.9 km/h 12.9 km/h 93 % 7.62 mm 0.0 W/m2 CLR
03:14 -15.6 °C -16.3 °C 34510.1 hPa NW 29.8 km/h 29.8 km/h 92 % 7.62 mm 0.0 W/m2 CLR
03:24 -15 °C -15.9 °C 34496.6 hPa NNW 11.9 km/h 11.9 km/h 89 % 7.62 mm 0.0 W/m2 CLR
03:30 -15 °C -16 °C 34496.6 hPa NW 29.8 km/h 29.8 km/h 88 % 7.62 mm 0.0 W/m2 CLR
03:51 -14.7 °C -15.8 °C 34510.1 hPa NW 26.9 km/h 26.9 km/h 87 % 0 mm 0.0 W/m2 CLR
03:58 -14.7 °C -15.8 °C 34510.1 hPa NW 26.9 km/h 26.9 km/h 87 % 0 mm 0.0 W/m2 CLR
04:10 -14.7 °C -15.8 °C 34510.1 hPa NW 15 km/h 15 km/h 87 % 0 mm 0.0 W/m2 CLR
04:18 -14.7 °C -15.8 °C 34510.1 hPa NW 17.9 km/h 17.9 km/h 87 % 0 mm 0.0 W/m2 CLR
04:59 -15 °C -16 °C 34510.1 hPa NNW 20.9 km/h 20.9 km/h 88 % 0 mm 0.0 W/m2 CLR
05:06 -15 °C -16 °C 34510.1 hPa NW 23.3 km/h 23.3 km/h 88 % 0 mm 0.0 W/m2 CLR
05:15 -15 °C -16 °C 34510.1 hPa NW 29.8 km/h 29.8 km/h 88 % 0 mm 0.0 W/m2 CLR
05:20 -15 °C -16 °C 34510.1 hPa NW 26.9 km/h 26.9 km/h 88 % 0 mm 0.0 W/m2 CLR
05:26 -15 °C -16 °C 34510.1 hPa NNW 29.8 km/h 29.8 km/h 88 % 0 mm 0.0 W/m2 CLR
05:59 -15 °C -15.9 °C 34510.1 hPa NW 26.9 km/h 26.9 km/h 89 % 0 mm 0.0 W/m2 CLR
06:08 -15 °C -15.9 °C 34510.1 hPa NW 20.9 km/h 20.9 km/h 89 % 0 mm 0.0 W/m2 CLR
06:13 -15 °C -15.9 °C 34510.1 hPa NW 15.6 km/h 15.6 km/h 89 % 0 mm 0.0 W/m2 CLR
06:24 -15.3 °C -16.2 °C 34510.1 hPa NW 20.9 km/h 20.9 km/h 90 % 0 mm 0.0 W/m2 CLR
06:32 -15.3 °C -16.2 °C 34510.1 hPa NW 20.8 km/h 20.8 km/h 89 % 0 mm 0.0 W/m2 CLR
06:39 -15.3 °C -16.2 °C 34510.1 hPa NW 23.8 km/h 23.8 km/h 90 % 0 mm 0.0 W/m2 CLR
06:47 -15.3 °C -16.2 °C 34496.6 hPa NW 9 km/h 9 km/h 90 % 0 mm 0.0 W/m2 CLR
06:55 -15 °C -15.9 °C 34496.6 hPa NW 23.8 km/h 23.8 km/h 89 % 0 mm 0.0 W/m2 CLR
07:05 -15 °C -16 °C 34496.6 hPa NW 29.8 km/h 29.8 km/h 88 % 0 mm 0.0 W/m2 CLR
07:15 -15 °C -16.1 °C 34496.6 hPa NNW 23.8 km/h 23.8 km/h 87 % 0 mm 0.0 W/m2 CLR
07:23 -15 °C -16.1 °C 34496.6 hPa NW 23.8 km/h 23.8 km/h 87 % 0 mm 0.0 W/m2 CLR
07:31 -15 °C -16.1 °C 34496.6 hPa NW 20.9 km/h 20.9 km/h 87 % 0 mm 0.0 W/m2 CLR
07:39 -15 °C -16.1 °C 34496.6 hPa NW 17.9 km/h 17.9 km/h 87 % 0 mm 0.0 W/m2 CLR
07:55 -15 °C -16.1 °C 34510.1 hPa NW 20.9 km/h 20.9 km/h 87 % 0 mm 0.0 W/m2 CLR
08:41 -14.7 °C -16.1 °C 34510.1 hPa NW 26.9 km/h 26.9 km/h 84 % 0 mm 9.0 W/m2 BKN
08:47 -14.7 °C -16.1 °C 34510.1 hPa NW 29.8 km/h 29.8 km/h 84 % 0 mm 9.0 W/m2 BKN
08:55 -14.7 °C -16.1 °C 34510.1 hPa NW 25.9 km/h 25.9 km/h 84 % 0 mm 16.0 W/m2 BKN
09:03 -14.7 °C -16.1 °C 34520.3 hPa NW 23.3 km/h 23.3 km/h 84 % 0 mm 16.0 W/m2 BKN
09:08 -14.7 °C -16.1 °C 34520.3 hPa WNW 20.9 km/h 20.9 km/h 84 % 0 mm 28.0 W/m2 BKN
09:14 -14.7 °C -16.2 °C 34520.3 hPa NW 29.8 km/h 29.8 km/h 83 % 0 mm 37.0 W/m2 BKN
09:39 -14.7 °C -16.3 °C 34533.8 hPa NW 20.9 km/h 20.9 km/h 82 % 0 mm 42.0 W/m2 SCT
09:45 -14.7 °C -16.3 °C 34533.8 hPa NW 26.9 km/h 26.9 km/h 82 % 0 mm 32.0 W/m2 BKN
10:23 -14.4 °C -16.1 °C 34554.1 hPa NNW 26.9 km/h 26.9 km/h 81 % 0 mm 97.0 W/m2 CLR
10:28 -14.1 °C -15.8 °C 34554.1 hPa NW 26.9 km/h 26.9 km/h 81 % 0 mm 91.0 W/m2 CLR
10:37 -14.1 °C -15.9 °C 34554.1 hPa NW 23.8 km/h 23.8 km/h 80 % 0 mm 95.0 W/m2 CLR
10:44 -14.1 °C -15.8 °C 34567.7 hPa Calm     81 % 0 mm 102.0 W/m2 CLR
11:04 -13.8 °C -15.7 °C 34567.7 hPa NNW 5.1 km/h 5.1 km/h 78 % 0 mm 156.0 W/m2 CLR
11:20 -13.4 °C -15.8 °C 34567.7 hPa WNW 29.8 km/h 29.8 km/h 75 % 0 mm 158.0 W/m2 CLR
11:25 -13.4 °C -15.9 °C 34567.7 hPa WNW 47.6 km/h 47.6 km/h 74 % 0 mm 128.0 W/m2 CLR
11:32 -13.4 °C -15.9 °C 34577.8 hPa WNW 29.8 km/h 29.8 km/h 74 % 0 mm 230.0 W/m2 CLR
11:48 -13.2 °C -15.6 °C 34577.8 hPa NNW 32.8 km/h 32.8 km/h 74 % 0 mm 155.0 W/m2 CLR
12:01 -12.8 °C -15.4 °C 34567.7 hPa NNW 35.7 km/h 35.7 km/h 73 % 0 mm 192.0 W/m2 CLR
12:28 -12.6 °C -15.3 °C 34567.7 hPa NNW 47.6 km/h 47.6 km/h 71 % 0 mm 188.0 W/m2 CLR
12:40 -12.6 °C -15.3 °C 34554.1 hPa NW 41.7 km/h 41.7 km/h 71 % 0 mm 257.0 W/m2 CLR
12:47 -12.6 °C -15.3 °C 34567.7 hPa NNW 44.1 km/h 44.1 km/h 71 % 0 mm 167.0 W/m2 CLR
13:04 -12.6 °C -15.2 °C 34554.1 hPa NW 35.7 km/h 35.7 km/h 72 % 0 mm 200.0 W/m2 CLR
13:16 -12.8 °C -15.4 °C 34554.1 hPa NNW 50.7 km/h 50.7 km/h 73 % 0 mm 193.0 W/m2 CLR
13:31 -12.6 °C -14.9 °C 34544 hPa North 47.6 km/h 47.6 km/h 75 % 0 mm 353.0 W/m2 CLR
13:41 -12.2 °C -14.7 °C 34544 hPa North 41.7 km/h 41.7 km/h 74 % 0 mm 241.0 W/m2 CLR
13:54 -12.8 °C -14.9 °C 34544 hPa NNW 44.7 km/h 44.7 km/h 77 % 0 mm 179.0 W/m2 CLR
14:04 -12.8 °C -15.1 °C 34544 hPa NNW 35.7 km/h 35.7 km/h 76 % 0 mm 134.0 W/m2 CLR
15:00 -12.6 °C -14.9 °C 34544 hPa NNW 47.6 km/h 47.6 km/h 74 % 0 mm 274.0 W/m2 CLR
15:07 -12.6 °C -15.1 °C 34554.1 hPa NNW 47.6 km/h 47.6 km/h 73 % 0 mm 264.0 W/m2 CLR
15:29 -12.6 °C -15.1 °C 34554.1 hPa North 38.8 km/h 38.8 km/h 73 % 0 mm 163.0 W/m2 CLR
15:37 -12.8 °C -15.4 °C 34554.1 hPa NNW 50.7 km/h 50.7 km/h 73 % 0 mm 142.0 W/m2 CLR
15:46 -12.8 °C -15.3 °C 34567.7 hPa North 50.7 km/h 50.7 km/h 74 % 0 mm 123.0 W/m2 CLR
15:53 -13.2 °C -15.4 °C 34567.7 hPa NNW 29.8 km/h 29.8 km/h 75 % 0 mm 84.0 W/m2 CLR
15:58 -13.2 °C -15.4 °C 34567.7 hPa North 31.1 km/h 31.1 km/h 75 % 0 mm 77.0 W/m2 CLR
16:08 -13.2 °C -15.4 °C 34567.7 hPa NNW 35.7 km/h 35.7 km/h 76 % 0 mm 69.0 W/m2 FEW
16:14 -13.2 °C -15.2 °C 34554.1 hPa North 29.8 km/h 29.8 km/h 77 % 0 mm 109.0 W/m2 FEW
16:32 -13.2 °C -15.4 °C 34567.7 hPa NNW 44.7 km/h 44.7 km/h 76 % 0 mm 70.0 W/m2 CLR
16:40 -13.2 °C -15.4 °C 34567.7 hPa NNW 31.1 km/h 31.1 km/h 76 % 0 mm 77.0 W/m2 FEW
16:56 -13.2 °C -15.4 °C 34567.7 hPa NNW 26.9 km/h 26.9 km/h 76 % 0 mm 63.0 W/m2 SCT
17:14 -13.2 °C -15.4 °C 34577.8 hPa NNW 25.9 km/h 25.9 km/h 76 % 0 mm 56.0 W/m2 SCT
17:25 -13.4 °C -15.7 °C 34577.8 hPa North 26.9 km/h 26.9 km/h 76 % 0 mm 37.0 W/m2 BKN
17:45 -13.4 °C -15.6 °C 34577.8 hPa NW 26.9 km/h 26.9 km/h 77 % 0 mm 14.0 W/m2 BKN
18:03 -13.8 °C -15.9 °C 34591.4 hPa NW 23.8 km/h 23.8 km/h 76 % 0 mm 0.0 W/m2 CLR
18:08 -13.8 °C -15.9 °C 34591.4 hPa NNW 26.9 km/h 26.9 km/h 76 % 0 mm 0.0 W/m2 CLR
18:31 -14.1 °C -16.3 °C 34601.5 hPa Calm     76 % 0 mm 0.0 W/m2 CLR
18:39 -14.1 °C -16.3 °C 34601.5 hPa Calm     76 % 0 mm 0.0 W/m2 CLR
18:44 -14.1 °C -16.3 °C 34601.5 hPa NNW 6 km/h 6 km/h 76 % 0 mm 0.0 W/m2 CLR
18:51 -14.1 °C -16.3 °C 34611.7 hPa NW 15.6 km/h 15.6 km/h 76 % 0 mm 0.0 W/m2 CLR
19:32 -13.8 °C -16.1 °C 34625.2 hPa NW 20.9 km/h 20.9 km/h 75 % 0 mm 0.0 W/m2 CLR
19:49 -13.8 °C -16.1 °C 34635.4 hPa WNW 20.9 km/h 20.9 km/h 75 % 0 mm 0.0 W/m2 CLR
19:56 -13.8 °C -16.1 °C 34635.4 hPa NW 20.9 km/h 20.9 km/h 75 % 0 mm 0.0 W/m2 CLR
20:04 -13.8 °C -16.1 °C 34635.4 hPa NW 23.8 km/h 23.8 km/h 75 % 0 mm 0.0 W/m2 CLR
20:11 -14.1 °C -16.3 °C 34645.6 hPa West 17.9 km/h 17.9 km/h 76 % 0 mm 0.0 W/m2 CLR
20:16 -14.1 °C -16.3 °C 34645.6 hPa WNW 15.6 km/h 15.6 km/h 76 % 0 mm 0.0 W/m2 CLR
20:22 -14.1 °C -16.3 °C 34645.6 hPa WNW 15 km/h 15 km/h 76 % 0 mm 0.0 W/m2 CLR
20:38 -14.4 °C -16.6 °C 34645.6 hPa WNW 20.8 km/h 20.8 km/h 76 % 0 mm 0.0 W/m2 CLR
20:50 -14.7 °C -16.8 °C 34659.1 hPa WNW 20.9 km/h 20.9 km/h 77 % 0 mm 0.0 W/m2 CLR
20:56 -14.7 °C -16.8 °C 34659.1 hPa WNW 20.9 km/h 20.9 km/h 77 % 0 mm 0.0 W/m2 CLR
21:05 -15 °C -17.3 °C 34659.1 hPa WNW 20.9 km/h 20.9 km/h 75 % 0 mm 0.0 W/m2 CLR
21:17 -15.3 °C -17.6 °C 34659.1 hPa NW 26.9 km/h 26.9 km/h 75 % 0 mm 0.0 W/m2 CLR
21:36 -15.9 °C -18.3 °C 34669.3 hPa NW 23.8 km/h 23.8 km/h 74 % 0 mm 0.0 W/m2 CLR
21:42 -15.9 °C -18.3 °C 34669.3 hPa WNW 23.8 km/h 23.8 km/h 74 % 0 mm 0.0 W/m2 CLR
22:02 -16.2 °C -18.4 °C 34682.8 hPa Calm     75 % 0 mm 0.0 W/m2 CLR
22:07 -16.6 °C -18.8 °C 34682.8 hPa Calm     75 % 0 mm 0.0 W/m2 CLR
22:17 -16.6 °C -18.7 °C 34669.3 hPa Calm     76 % 0 mm 0.0 W/m2 CLR
22:28 -16.8 °C -18.9 °C 34682.8 hPa WNW 6 km/h 6 km/h 76 % 0 mm 0.0 W/m2 CLR
22:45 -16.8 °C -18.8 °C 34682.8 hPa NW 20.8 km/h 20.8 km/h 77 % 0 mm 0.0 W/m2 CLR
22:51 -16.8 °C -18.8 °C 34693 hPa WNW 17.9 km/h 17.9 km/h 77 % 0 mm 0.0 W/m2 CLR
23:04 -16.8 °C -18.8 °C 34693 hPa NW 5.1 km/h 5.1 km/h 77 % 0 mm 0.0 W/m2 CLR
23:10 -16.8 °C -18.8 °C 34693 hPa WNW 23.8 km/h 23.8 km/h 78 % 0 mm 0.0 W/m2 CLR
23:16 -16.6 °C -18.4 °C 34693 hPa WNW 11.9 km/h 11.9 km/h 78 % 0 mm 0.0 W/m2 CLR
23:23 -16.6 °C -18.4 °C 34703.1 hPa WNW 9 km/h 9 km/h 78 % 0 mm 0.0 W/m2 CLR
23:29 -16.6 °C -18.4 °C 34703.1 hPa West 15 km/h 15 km/h 79 % 0 mm 0.0 W/m2 CLR
23:38 -16.6 °C -18.2 °C 34703.1 hPa West 17.9 km/h 17.9 km/h 81 % 0 mm 0.0 W/m2 CLR
23:53 -16.6 °C -18.2 °C 34716.7 hPa WNW 12.9 km/h 12.9 km/h 81 % 0 mm 0.0 W/m2 CLR
23:59 -16.8 °C -18.4 °C 34716.7 hPa West 9 km/h 9 km/h 81 % 0 mm 0.0 W/m2 CLR
Lo Temps de Massalio
Compliments of Weather Underground - 768 kb